sensor_id;sensor_type;location;lat;lon;timestamp;P1;durP1;ratioP1;P2;durP2;ratioP2
73113;SDS011;61301;51.956;5.876;2024-02-04T00:00:07;11.80;;;10.07;;
73113;SDS011;61301;51.956;5.876;2024-02-04T00:02:39;11.77;;;9.95;;
73113;SDS011;61301;51.956;5.876;2024-02-04T00:05:05;10.90;;;9.32;;
73113;SDS011;61301;51.956;5.876;2024-02-04T00:07:31;10.65;;;9.55;;
73113;SDS011;61301;51.956;5.876;2024-02-04T00:09:57;12.52;;;9.40;;
73113;SDS011;61301;51.956;5.876;2024-02-04T00:12:23;10.43;;;9.30;;
73113;SDS011;61301;51.956;5.876;2024-02-04T00:14:49;11.18;;;9.95;;
73113;SDS011;61301;51.956;5.876;2024-02-04T00:17:16;13.70;;;9.35;;
73113;SDS011;61301;51.956;5.876;2024-02-04T00:19:42;12.38;;;10.40;;
73113;SDS011;61301;51.956;5.876;2024-02-04T00:22:09;13.35;;;10.88;;
73113;SDS011;61301;51.956;5.876;2024-02-04T00:24:35;16.75;;;10.60;;
73113;SDS011;61301;51.956;5.876;2024-02-04T00:27:01;14.20;;;10.75;;
73113;SDS011;61301;51.956;5.876;2024-02-04T00:29:27;13.45;;;11.05;;
73113;SDS011;61301;51.956;5.876;2024-02-04T00:31:53;12.65;;;9.85;;
73113;SDS011;61301;51.956;5.876;2024-02-04T00:34:19;18.55;;;11.15;;
73113;SDS011;61301;51.956;5.876;2024-02-04T00:36:45;17.42;;;13.43;;
73113;SDS011;61301;51.956;5.876;2024-02-04T00:39:11;20.27;;;11.90;;
73113;SDS011;61301;51.956;5.876;2024-02-04T00:41:37;21.70;;;13.68;;
73113;SDS011;61301;51.956;5.876;2024-02-04T00:44:03;20.23;;;13.88;;
73113;SDS011;61301;51.956;5.876;2024-02-04T00:46:29;25.90;;;14.82;;
73113;SDS011;61301;51.956;5.876;2024-02-04T00:48:55;19.83;;;12.05;;
73113;SDS011;61301;51.956;5.876;2024-02-04T00:51:21;22.80;;;15.43;;
73113;SDS011;61301;51.956;5.876;2024-02-04T00:53:47;26.20;;;14.70;;
73113;SDS011;61301;51.956;5.876;2024-02-04T00:56:13;26.92;;;15.80;;
73113;SDS011;61301;51.956;5.876;2024-02-04T00:58:39;23.52;;;13.07;;
73113;SDS011;61301;51.956;5.876;2024-02-04T01:01:05;25.73;;;14.73;;
73113;SDS011;61301;51.956;5.876;2024-02-04T01:03:31;20.27;;;12.32;;
73113;SDS011;61301;51.956;5.876;2024-02-04T01:05:57;23.55;;;12.75;;
73113;SDS011;61301;51.956;5.876;2024-02-04T01:08:24;31.10;;;16.35;;
73113;SDS011;61301;51.956;5.876;2024-02-04T01:10:50;25.13;;;15.23;;
73113;SDS011;61301;51.956;5.876;2024-02-04T01:13:19;29.98;;;14.55;;
73113;SDS011;61301;51.956;5.876;2024-02-04T01:15:45;21.55;;;12.98;;
73113;SDS011;61301;51.956;5.876;2024-02-04T01:18:11;20.05;;;11.90;;
73113;SDS011;61301;51.956;5.876;2024-02-04T01:20:38;21.50;;;13.07;;
73113;SDS011;61301;51.956;5.876;2024-02-04T01:23:04;21.17;;;12.57;;
73113;SDS011;61301;51.956;5.876;2024-02-04T01:25:30;22.02;;;11.13;;
73113;SDS011;61301;51.956;5.876;2024-02-04T01:27:56;26.00;;;13.98;;
73113;SDS011;61301;51.956;5.876;2024-02-04T01:30:22;22.80;;;12.38;;
73113;SDS011;61301;51.956;5.876;2024-02-04T01:32:48;30.00;;;14.10;;
73113;SDS011;61301;51.956;5.876;2024-02-04T01:35:14;20.85;;;12.82;;
73113;SDS011;61301;51.956;5.876;2024-02-04T01:37:41;23.30;;;12.93;;
73113;SDS011;61301;51.956;5.876;2024-02-04T01:40:09;23.60;;;12.52;;
73113;SDS011;61301;51.956;5.876;2024-02-04T01:42:35;22.60;;;12.77;;
73113;SDS011;61301;51.956;5.876;2024-02-04T01:45:02;23.02;;;12.48;;
73113;SDS011;61301;51.956;5.876;2024-02-04T01:47:28;29.08;;;12.80;;
73113;SDS011;61301;51.956;5.876;2024-02-04T01:49:54;22.77;;;12.05;;
73113;SDS011;61301;51.956;5.876;2024-02-04T01:52:21;18.92;;;9.90;;
73113;SDS011;61301;51.956;5.876;2024-02-04T01:54:47;22.30;;;11.75;;
73113;SDS011;61301;51.956;5.876;2024-02-04T01:57:14;16.45;;;9.88;;
73113;SDS011;61301;51.956;5.876;2024-02-04T01:59:42;18.58;;;10.48;;
73113;SDS011;61301;51.956;5.876;2024-02-04T02:02:09;20.10;;;11.15;;
73113;SDS011;61301;51.956;5.876;2024-02-04T02:04:35;17.90;;;10.90;;
73113;SDS011;61301;51.956;5.876;2024-02-04T02:07:02;22.42;;;11.65;;
73113;SDS011;61301;51.956;5.876;2024-02-04T02:09:28;19.48;;;10.68;;
73113;SDS011;61301;51.956;5.876;2024-02-04T02:12:07;19.45;;;10.95;;
73113;SDS011;61301;51.956;5.876;2024-02-04T02:14:37;15.40;;;10.52;;
73113;SDS011;61301;51.956;5.876;2024-02-04T02:17:10;13.45;;;9.38;;
73113;SDS011;61301;51.956;5.876;2024-02-04T02:19:46;14.55;;;9.18;;
73113;SDS011;61301;51.956;5.876;2024-02-04T02:22:26;20.60;;;10.57;;
73113;SDS011;61301;51.956;5.876;2024-02-04T02:25:05;13.93;;;8.93;;
73113;SDS011;61301;51.956;5.876;2024-02-04T02:27:33;13.95;;;8.90;;
73113;SDS011;61301;51.956;5.876;2024-02-04T02:29:59;19.70;;;10.05;;
73113;SDS011;61301;51.956;5.876;2024-02-04T02:32:25;11.55;;;8.80;;
73113;SDS011;61301;51.956;5.876;2024-02-04T02:34:52;17.20;;;10.82;;
73113;SDS011;61301;51.956;5.876;2024-02-04T02:42:52;19.45;;;10.63;;
73113;SDS011;61301;51.956;5.876;2024-02-04T02:45:21;17.48;;;10.23;;
73113;SDS011;61301;51.956;5.876;2024-02-04T02:47:51;14.07;;;9.18;;
73113;SDS011;61301;51.956;5.876;2024-02-04T02:50:18;18.92;;;9.93;;
73113;SDS011;61301;51.956;5.876;2024-02-04T02:52:45;15.20;;;9.10;;
73113;SDS011;61301;51.956;5.876;2024-02-04T02:55:11;15.10;;;8.48;;
73113;SDS011;61301;51.956;5.876;2024-02-04T02:57:37;13.52;;;8.40;;
73113;SDS011;61301;51.956;5.876;2024-02-04T03:00:03;19.00;;;10.45;;
73113;SDS011;61301;51.956;5.876;2024-02-04T03:02:31;17.75;;;10.23;;
73113;SDS011;61301;51.956;5.876;2024-02-04T03:04:58;15.63;;;8.43;;
73113;SDS011;61301;51.956;5.876;2024-02-04T03:07:24;11.48;;;8.25;;
73113;SDS011;61301;51.956;5.876;2024-02-04T03:09:52;17.88;;;11.48;;
73113;SDS011;61301;51.956;5.876;2024-02-04T03:12:18;18.92;;;9.23;;
73113;SDS011;61301;51.956;5.876;2024-02-04T03:14:44;17.50;;;9.85;;
73113;SDS011;61301;51.956;5.876;2024-02-04T03:17:10;13.88;;;7.68;;
73113;SDS011;61301;51.956;5.876;2024-02-04T03:19:38;20.00;;;10.85;;
73113;SDS011;61301;51.956;5.876;2024-02-04T03:22:04;20.23;;;11.38;;
73113;SDS011;61301;51.956;5.876;2024-02-04T03:24:31;14.23;;;10.80;;
73113;SDS011;61301;51.956;5.876;2024-02-04T03:26:57;21.63;;;12.70;;
73113;SDS011;61301;51.956;5.876;2024-02-04T03:29:23;22.75;;;13.52;;
73113;SDS011;61301;51.956;5.876;2024-02-04T03:31:49;22.55;;;14.52;;
73113;SDS011;61301;51.956;5.876;2024-02-04T03:34:15;21.80;;;14.13;;
73113;SDS011;61301;51.956;5.876;2024-02-04T03:36:41;25.13;;;16.17;;
73113;SDS011;61301;51.956;5.876;2024-02-04T03:39:08;31.50;;;17.75;;
73113;SDS011;61301;51.956;5.876;2024-02-04T03:41:34;29.15;;;19.63;;
73113;SDS011;61301;51.956;5.876;2024-02-04T03:44:00;32.00;;;19.33;;
73113;SDS011;61301;51.956;5.876;2024-02-04T03:46:26;27.02;;;17.00;;
73113;SDS011;61301;51.956;5.876;2024-02-04T03:48:52;22.13;;;14.38;;
73113;SDS011;61301;51.956;5.876;2024-02-04T03:51:18;24.65;;;13.55;;
73113;SDS011;61301;51.956;5.876;2024-02-04T03:53:45;21.55;;;13.35;;
73113;SDS011;61301;51.956;5.876;2024-02-04T03:56:13;21.65;;;12.20;;
73113;SDS011;61301;51.956;5.876;2024-02-04T03:58:39;20.73;;;11.60;;
73113;SDS011;61301;51.956;5.876;2024-02-04T04:01:05;16.30;;;9.38;;
73113;SDS011;61301;51.956;5.876;2024-02-04T04:03:31;15.18;;;9.90;;
73113;SDS011;61301;51.956;5.876;2024-02-04T04:05:57;18.30;;;10.07;;
73113;SDS011;61301;51.956;5.876;2024-02-04T04:08:23;15.05;;;8.07;;
73113;SDS011;61301;51.956;5.876;2024-02-04T04:10:49;13.10;;;7.72;;
73113;SDS011;61301;51.956;5.876;2024-02-04T04:13:16;16.58;;;9.07;;
73113;SDS011;61301;51.956;5.876;2024-02-04T04:15:42;14.70;;;7.65;;
73113;SDS011;61301;51.956;5.876;2024-02-04T04:18:08;19.60;;;9.70;;
73113;SDS011;61301;51.956;5.876;2024-02-04T04:20:37;16.10;;;10.13;;
73113;SDS011;61301;51.956;5.876;2024-02-04T04:23:03;13.23;;;8.55;;
73113;SDS011;61301;51.956;5.876;2024-02-04T04:25:29;12.40;;;9.40;;
73113;SDS011;61301;51.956;5.876;2024-02-04T04:27:55;19.45;;;10.00;;
73113;SDS011;61301;51.956;5.876;2024-02-04T04:30:23;14.70;;;8.57;;
73113;SDS011;61301;51.956;5.876;2024-02-04T04:32:49;14.35;;;9.68;;
73113;SDS011;61301;51.956;5.876;2024-02-04T04:35:18;21.45;;;10.48;;
73113;SDS011;61301;51.956;5.876;2024-02-04T04:37:44;13.65;;;9.27;;
73113;SDS011;61301;51.956;5.876;2024-02-04T04:40:10;15.73;;;9.95;;
73113;SDS011;61301;51.956;5.876;2024-02-04T04:42:36;17.95;;;9.80;;
73113;SDS011;61301;51.956;5.876;2024-02-04T04:45:02;12.15;;;8.07;;
73113;SDS011;61301;51.956;5.876;2024-02-04T04:47:29;23.00;;;10.75;;
73113;SDS011;61301;51.956;5.876;2024-02-04T04:49:55;17.80;;;9.25;;
73113;SDS011;61301;51.956;5.876;2024-02-04T04:52:21;17.33;;;10.43;;
73113;SDS011;61301;51.956;5.876;2024-02-04T04:54:47;18.17;;;11.02;;
73113;SDS011;61301;51.956;5.876;2024-02-04T04:57:13;15.02;;;9.45;;
73113;SDS011;61301;51.956;5.876;2024-02-04T04:59:39;13.50;;;9.48;;
73113;SDS011;61301;51.956;5.876;2024-02-04T05:02:05;16.52;;;10.65;;
73113;SDS011;61301;51.956;5.876;2024-02-04T05:04:31;18.90;;;10.68;;
73113;SDS011;61301;51.956;5.876;2024-02-04T05:06:57;14.55;;;9.73;;
73113;SDS011;61301;51.956;5.876;2024-02-04T05:09:23;24.05;;;11.10;;
73113;SDS011;61301;51.956;5.876;2024-02-04T05:11:49;19.00;;;10.55;;
73113;SDS011;61301;51.956;5.876;2024-02-04T05:14:15;19.92;;;10.10;;
73113;SDS011;61301;51.956;5.876;2024-02-04T05:16:41;19.30;;;11.27;;
73113;SDS011;61301;51.956;5.876;2024-02-04T05:19:09;20.38;;;10.65;;
73113;SDS011;61301;51.956;5.876;2024-02-04T05:21:37;21.70;;;11.55;;
73113;SDS011;61301;51.956;5.876;2024-02-04T05:24:05;18.40;;;9.90;;
73113;SDS011;61301;51.956;5.876;2024-02-04T05:26:31;17.05;;;9.85;;
73113;SDS011;61301;51.956;5.876;2024-02-04T05:28:57;19.55;;;9.50;;
73113;SDS011;61301;51.956;5.876;2024-02-04T05:31:23;19.00;;;9.95;;
73113;SDS011;61301;51.956;5.876;2024-02-04T05:33:51;18.20;;;8.88;;
73113;SDS011;61301;51.956;5.876;2024-02-04T05:36:17;16.65;;;7.78;;
73113;SDS011;61301;51.956;5.876;2024-02-04T05:38:44;10.43;;;7.18;;
73113;SDS011;61301;51.956;5.876;2024-02-04T05:41:11;13.60;;;7.40;;
73113;SDS011;61301;51.956;5.876;2024-02-04T05:43:37;15.02;;;8.18;;
73113;SDS011;61301;51.956;5.876;2024-02-04T05:46:04;13.77;;;7.60;;
73113;SDS011;61301;51.956;5.876;2024-02-04T05:48:31;14.85;;;7.55;;
73113;SDS011;61301;51.956;5.876;2024-02-04T05:50:57;12.93;;;7.85;;
73113;SDS011;61301;51.956;5.876;2024-02-04T05:53:23;15.40;;;8.20;;
73113;SDS011;61301;51.956;5.876;2024-02-04T05:55:49;14.93;;;7.65;;
73113;SDS011;61301;51.956;5.876;2024-02-04T05:58:15;14.07;;;8.07;;
73113;SDS011;61301;51.956;5.876;2024-02-04T06:00:41;17.05;;;8.77;;
73113;SDS011;61301;51.956;5.876;2024-02-04T06:03:07;14.35;;;8.40;;
73113;SDS011;61301;51.956;5.876;2024-02-04T06:05:33;17.15;;;8.88;;
73113;SDS011;61301;51.956;5.876;2024-02-04T06:07:59;12.13;;;8.18;;
73113;SDS011;61301;51.956;5.876;2024-02-04T06:10:25;11.07;;;7.80;;
73113;SDS011;61301;51.956;5.876;2024-02-04T06:12:51;18.75;;;8.57;;
73113;SDS011;61301;51.956;5.876;2024-02-04T06:15:17;10.90;;;7.32;;
73113;SDS011;61301;51.956;5.876;2024-02-04T06:17:43;13.75;;;8.15;;
73113;SDS011;61301;51.956;5.876;2024-02-04T06:20:09;14.73;;;8.63;;
73113;SDS011;61301;51.956;5.876;2024-02-04T06:22:36;16.83;;;9.50;;
73113;SDS011;61301;51.956;5.876;2024-02-04T06:25:02;19.05;;;11.00;;
73113;SDS011;61301;51.956;5.876;2024-02-04T06:27:29;13.60;;;9.30;;
73113;SDS011;61301;51.956;5.876;2024-02-04T06:29:56;15.20;;;11.30;;
73113;SDS011;61301;51.956;5.876;2024-02-04T06:32:22;13.05;;;8.90;;
73113;SDS011;61301;51.956;5.876;2024-02-04T06:34:50;16.00;;;9.85;;
73113;SDS011;61301;51.956;5.876;2024-02-04T06:37:17;18.98;;;10.63;;
73113;SDS011;61301;51.956;5.876;2024-02-04T06:39:43;18.88;;;13.35;;
73113;SDS011;61301;51.956;5.876;2024-02-04T06:42:09;24.85;;;15.45;;
73113;SDS011;61301;51.956;5.876;2024-02-04T06:44:35;19.80;;;15.10;;
73113;SDS011;61301;51.956;5.876;2024-02-04T06:47:01;23.98;;;17.23;;
73113;SDS011;61301;51.956;5.876;2024-02-04T06:49:27;23.60;;;17.90;;
73113;SDS011;61301;51.956;5.876;2024-02-04T06:51:52;22.65;;;18.42;;
73113;SDS011;61301;51.956;5.876;2024-02-04T06:54:25;23.98;;;18.13;;
73113;SDS011;61301;51.956;5.876;2024-02-04T06:56:51;22.25;;;17.92;;
73113;SDS011;61301;51.956;5.876;2024-02-04T06:59:18;29.27;;;19.83;;
73113;SDS011;61301;51.956;5.876;2024-02-04T07:01:44;20.20;;;17.52;;
73113;SDS011;61301;51.956;5.876;2024-02-04T07:04:10;25.73;;;18.77;;
73113;SDS011;61301;51.956;5.876;2024-02-04T07:06:36;22.38;;;17.35;;
73113;SDS011;61301;51.956;5.876;2024-02-04T07:09:02;27.10;;;15.88;;
73113;SDS011;61301;51.956;5.876;2024-02-04T07:11:28;19.98;;;13.05;;
73113;SDS011;61301;51.956;5.876;2024-02-04T07:13:54;23.48;;;16.52;;
73113;SDS011;61301;51.956;5.876;2024-02-04T07:16:25;18.10;;;15.13;;
73113;SDS011;61301;51.956;5.876;2024-02-04T07:18:52;22.65;;;15.10;;
73113;SDS011;61301;51.956;5.876;2024-02-04T07:21:18;16.80;;;13.63;;
73113;SDS011;61301;51.956;5.876;2024-02-04T07:23:44;18.95;;;11.63;;
73113;SDS011;61301;51.956;5.876;2024-02-04T07:26:10;19.60;;;13.90;;
73113;SDS011;61301;51.956;5.876;2024-02-04T07:28:36;19.85;;;11.98;;
73113;SDS011;61301;51.956;5.876;2024-02-04T07:31:02;20.55;;;13.50;;
73113;SDS011;61301;51.956;5.876;2024-02-04T07:33:28;18.38;;;12.68;;
73113;SDS011;61301;51.956;5.876;2024-02-04T07:35:54;23.30;;;13.73;;
73113;SDS011;61301;51.956;5.876;2024-02-04T07:38:20;21.75;;;13.32;;
73113;SDS011;61301;51.956;5.876;2024-02-04T07:40:46;16.05;;;11.20;;
73113;SDS011;61301;51.956;5.876;2024-02-04T07:43:12;18.13;;;12.40;;
73113;SDS011;61301;51.956;5.876;2024-02-04T07:45:39;19.20;;;11.00;;
73113;SDS011;61301;51.956;5.876;2024-02-04T07:48:05;26.98;;;12.48;;
73113;SDS011;61301;51.956;5.876;2024-02-04T07:50:31;17.17;;;9.40;;
73113;SDS011;61301;51.956;5.876;2024-02-04T07:52:57;16.92;;;10.73;;
73113;SDS011;61301;51.956;5.876;2024-02-04T07:55:23;16.85;;;9.57;;
73113;SDS011;61301;51.956;5.876;2024-02-04T07:57:49;21.70;;;9.75;;
73113;SDS011;61301;51.956;5.876;2024-02-04T08:00:15;18.30;;;9.07;;
73113;SDS011;61301;51.956;5.876;2024-02-04T08:02:43;13.00;;;7.90;;
73113;SDS011;61301;51.956;5.876;2024-02-04T08:05:10;15.55;;;8.30;;
73113;SDS011;61301;51.956;5.876;2024-02-04T08:07:37;10.27;;;7.75;;
73113;SDS011;61301;51.956;5.876;2024-02-04T08:10:03;15.25;;;8.90;;
73113;SDS011;61301;51.956;5.876;2024-02-04T08:12:30;20.75;;;8.60;;
73113;SDS011;61301;51.956;5.876;2024-02-04T08:14:56;17.65;;;8.25;;
73113;SDS011;61301;51.956;5.876;2024-02-04T08:17:22;10.20;;;7.32;;
73113;SDS011;61301;51.956;5.876;2024-02-04T08:19:48;11.35;;;6.45;;
73113;SDS011;61301;51.956;5.876;2024-02-04T08:22:14;16.30;;;7.95;;
73113;SDS011;61301;51.956;5.876;2024-02-04T08:24:43;11.35;;;7.30;;
73113;SDS011;61301;51.956;5.876;2024-02-04T08:27:09;22.55;;;8.95;;
73113;SDS011;61301;51.956;5.876;2024-02-04T08:29:35;9.23;;;5.50;;
73113;SDS011;61301;51.956;5.876;2024-02-04T08:32:01;15.50;;;7.20;;
73113;SDS011;61301;51.956;5.876;2024-02-04T08:34:28;11.48;;;6.55;;
73113;SDS011;61301;51.956;5.876;2024-02-04T08:36:54;16.98;;;7.03;;
73113;SDS011;61301;51.956;5.876;2024-02-04T08:39:20;11.18;;;5.90;;
73113;SDS011;61301;51.956;5.876;2024-02-04T08:41:46;12.77;;;6.57;;
73113;SDS011;61301;51.956;5.876;2024-02-04T08:44:12;14.18;;;5.88;;
73113;SDS011;61301;51.956;5.876;2024-02-04T08:46:38;14.10;;;5.97;;
73113;SDS011;61301;51.956;5.876;2024-02-04T08:49:04;13.63;;;5.38;;
73113;SDS011;61301;51.956;5.876;2024-02-04T08:51:30;12.18;;;5.80;;
73113;SDS011;61301;51.956;5.876;2024-02-04T08:53:56;14.40;;;5.97;;
73113;SDS011;61301;51.956;5.876;2024-02-04T08:56:22;9.57;;;5.00;;
73113;SDS011;61301;51.956;5.876;2024-02-04T08:58:48;10.75;;;4.85;;
73113;SDS011;61301;51.956;5.876;2024-02-04T09:01:14;10.55;;;4.18;;
73113;SDS011;61301;51.956;5.876;2024-02-04T09:03:40;9.43;;;4.18;;
73113;SDS011;61301;51.956;5.876;2024-02-04T09:06:05;5.97;;;4.00;;
73113;SDS011;61301;51.956;5.876;2024-02-04T09:08:32;6.88;;;4.60;;
73113;SDS011;61301;51.956;5.876;2024-02-04T09:10:57;9.85;;;4.38;;
73113;SDS011;61301;51.956;5.876;2024-02-04T09:13:24;7.40;;;3.90;;
73113;SDS011;61301;51.956;5.876;2024-02-04T09:15:50;8.18;;;5.43;;
73113;SDS011;61301;51.956;5.876;2024-02-04T09:18:16;10.13;;;4.90;;
73113;SDS011;61301;51.956;5.876;2024-02-04T09:20:42;6.05;;;4.43;;
73113;SDS011;61301;51.956;5.876;2024-02-04T09:23:08;10.57;;;5.63;;
73113;SDS011;61301;51.956;5.876;2024-02-04T09:25:34;10.75;;;6.80;;
73113;SDS011;61301;51.956;5.876;2024-02-04T09:28:00;9.18;;;5.93;;
73113;SDS011;61301;51.956;5.876;2024-02-04T09:30:26;10.48;;;5.72;;
73113;SDS011;61301;51.956;5.876;2024-02-04T09:32:52;8.00;;;4.95;;
73113;SDS011;61301;51.956;5.876;2024-02-04T09:35:18;13.43;;;7.35;;
73113;SDS011;61301;51.956;5.876;2024-02-04T09:37:44;8.30;;;5.88;;
73113;SDS011;61301;51.956;5.876;2024-02-04T09:40:10;10.15;;;5.57;;
73113;SDS011;61301;51.956;5.876;2024-02-04T09:42:37;11.70;;;5.90;;
73113;SDS011;61301;51.956;5.876;2024-02-04T09:45:03;8.90;;;5.82;;
73113;SDS011;61301;51.956;5.876;2024-02-04T09:47:30;12.88;;;5.65;;
73113;SDS011;61301;51.956;5.876;2024-02-04T09:50:00;7.75;;;5.15;;
73113;SDS011;61301;51.956;5.876;2024-02-04T09:52:29;6.75;;;5.00;;
73113;SDS011;61301;51.956;5.876;2024-02-04T09:55:01;8.82;;;4.22;;
73113;SDS011;61301;51.956;5.876;2024-02-04T09:57:29;7.25;;;4.30;;
73113;SDS011;61301;51.956;5.876;2024-02-04T09:59:56;12.93;;;4.72;;
73113;SDS011;61301;51.956;5.876;2024-02-04T10:02:22;7.68;;;4.38;;
73113;SDS011;61301;51.956;5.876;2024-02-04T10:04:49;4.15;;;3.30;;
73113;SDS011;61301;51.956;5.876;2024-02-04T10:07:15;7.45;;;3.55;;
73113;SDS011;61301;51.956;5.876;2024-02-04T10:09:44;13.27;;;4.35;;
73113;SDS011;61301;51.956;5.876;2024-02-04T10:12:10;7.55;;;3.40;;
73113;SDS011;61301;51.956;5.876;2024-02-04T10:14:36;7.30;;;3.70;;
73113;SDS011;61301;51.956;5.876;2024-02-04T10:17:03;7.05;;;3.10;;
73113;SDS011;61301;51.956;5.876;2024-02-04T10:19:30;11.52;;;4.03;;
73113;SDS011;61301;51.956;5.876;2024-02-04T10:21:59;5.10;;;2.90;;
73113;SDS011;61301;51.956;5.876;2024-02-04T10:24:27;8.70;;;3.42;;
73113;SDS011;61301;51.956;5.876;2024-02-04T10:26:54;4.57;;;2.88;;
73113;SDS011;61301;51.956;5.876;2024-02-04T10:29:21;5.50;;;2.70;;
73113;SDS011;61301;51.956;5.876;2024-02-04T10:31:54;5.13;;;2.50;;
73113;SDS011;61301;51.956;5.876;2024-02-04T10:34:20;4.55;;;2.53;;
73113;SDS011;61301;51.956;5.876;2024-02-04T10:36:47;5.20;;;2.55;;
73113;SDS011;61301;51.956;5.876;2024-02-04T10:39:13;7.43;;;2.38;;
73113;SDS011;61301;51.956;5.876;2024-02-04T10:41:41;6.40;;;2.42;;
73113;SDS011;61301;51.956;5.876;2024-02-04T10:44:16;7.32;;;2.35;;
73113;SDS011;61301;51.956;5.876;2024-02-04T10:46:44;5.13;;;1.95;;
73113;SDS011;61301;51.956;5.876;2024-02-04T10:49:14;5.60;;;1.98;;
73113;SDS011;61301;51.956;5.876;2024-02-04T10:51:41;7.38;;;2.20;;
73113;SDS011;61301;51.956;5.876;2024-02-04T10:54:08;5.47;;;2.03;;
73113;SDS011;61301;51.956;5.876;2024-02-04T10:56:42;5.35;;;2.03;;
73113;SDS011;61301;51.956;5.876;2024-02-04T10:59:10;7.55;;;2.22;;
73113;SDS011;61301;51.956;5.876;2024-02-04T11:01:40;5.72;;;1.50;;
73113;SDS011;61301;51.956;5.876;2024-02-04T11:04:12;5.45;;;1.70;;
73113;SDS011;61301;51.956;5.876;2024-02-04T11:06:40;6.20;;;1.85;;
73113;SDS011;61301;51.956;5.876;2024-02-04T11:09:08;4.05;;;1.42;;
73113;SDS011;61301;51.956;5.876;2024-02-04T11:11:36;5.10;;;1.27;;
73113;SDS011;61301;51.956;5.876;2024-02-04T11:14:03;3.85;;;1.58;;
73113;SDS011;61301;51.956;5.876;2024-02-04T11:27:04;4.38;;;1.27;;
73113;SDS011;61301;51.956;5.876;2024-02-04T11:29:30;1.30;;;0.80;;
73113;SDS011;61301;51.956;5.876;2024-02-04T11:31:56;1.85;;;0.80;;
73113;SDS011;61301;51.956;5.876;2024-02-04T11:34:23;1.70;;;0.80;;
73113;SDS011;61301;51.956;5.876;2024-02-04T11:36:49;2.88;;;1.17;;
73113;SDS011;61301;51.956;5.876;2024-02-04T11:39:17;2.45;;;0.80;;
73113;SDS011;61301;51.956;5.876;2024-02-04T11:41:48;1.20;;;0.80;;
73113;SDS011;61301;51.956;5.876;2024-02-04T11:44:21;1.42;;;0.90;;
73113;SDS011;61301;51.956;5.876;2024-02-04T11:46:48;1.00;;;0.70;;
73113;SDS011;61301;51.956;5.876;2024-02-04T11:49:24;0.88;;;0.80;;
73113;SDS011;61301;51.956;5.876;2024-02-04T11:51:51;2.10;;;1.05;;
73113;SDS011;61301;51.956;5.876;2024-02-04T11:54:17;1.98;;;1.02;;
73113;SDS011;61301;51.956;5.876;2024-02-04T11:56:47;1.40;;;0.85;;
73113;SDS011;61301;51.956;5.876;2024-02-04T11:59:22;3.15;;;1.33;;
73113;SDS011;61301;51.956;5.876;2024-02-04T12:01:55;1.95;;;1.15;;
73113;SDS011;61301;51.956;5.876;2024-02-04T12:04:23;1.90;;;1.40;;
73113;SDS011;61301;51.956;5.876;2024-02-04T12:06:49;3.45;;;1.58;;
73113;SDS011;61301;51.956;5.876;2024-02-04T12:09:17;3.40;;;1.95;;
73113;SDS011;61301;51.956;5.876;2024-02-04T12:11:47;2.75;;;2.15;;
73113;SDS011;61301;51.956;5.876;2024-02-04T12:14:13;4.22;;;2.08;;
73113;SDS011;61301;51.956;5.876;2024-02-04T12:16:43;5.28;;;2.40;;
73113;SDS011;61301;51.956;5.876;2024-02-04T12:19:09;6.55;;;2.50;;
73113;SDS011;61301;51.956;5.876;2024-02-04T12:21:35;5.13;;;3.15;;
73113;SDS011;61301;51.956;5.876;2024-02-04T12:24:01;3.67;;;2.33;;
73113;SDS011;61301;51.956;5.876;2024-02-04T12:26:28;7.32;;;3.10;;
73113;SDS011;61301;51.956;5.876;2024-02-04T12:28:54;4.60;;;2.85;;
73113;SDS011;61301;51.956;5.876;2024-02-04T12:31:21;6.50;;;3.90;;
73113;SDS011;61301;51.956;5.876;2024-02-04T12:33:53;6.40;;;3.30;;
73113;SDS011;61301;51.956;5.876;2024-02-04T12:36:24;7.88;;;3.63;;
73113;SDS011;61301;51.956;5.876;2024-02-04T12:38:54;5.68;;;3.58;;
73113;SDS011;61301;51.956;5.876;2024-02-04T12:41:24;11.20;;;4.03;;
73113;SDS011;61301;51.956;5.876;2024-02-04T12:43:55;7.85;;;3.83;;
73113;SDS011;61301;51.956;5.876;2024-02-04T12:46:22;11.82;;;3.88;;
73113;SDS011;61301;51.956;5.876;2024-02-04T12:48:52;11.95;;;4.13;;
73113;SDS011;61301;51.956;5.876;2024-02-04T12:51:26;11.77;;;3.92;;
73113;SDS011;61301;51.956;5.876;2024-02-04T12:54:10;12.02;;;4.43;;
73113;SDS011;61301;51.956;5.876;2024-02-04T12:59:33;12.60;;;4.55;;
73113;SDS011;61301;51.956;5.876;2024-02-04T13:02:03;9.68;;;4.18;;
73113;SDS011;61301;51.956;5.876;2024-02-04T13:04:36;12.07;;;4.35;;
73113;SDS011;61301;51.956;5.876;2024-02-04T13:07:10;8.18;;;4.20;;
73113;SDS011;61301;51.956;5.876;2024-02-04T13:09:40;10.27;;;4.97;;
73113;SDS011;61301;51.956;5.876;2024-02-04T13:12:07;12.55;;;4.40;;
73113;SDS011;61301;51.956;5.876;2024-02-04T13:14:35;9.70;;;4.30;;
73113;SDS011;61301;51.956;5.876;2024-02-04T13:17:02;13.07;;;4.45;;
73113;SDS011;61301;51.956;5.876;2024-02-04T13:19:36;9.95;;;4.10;;
73113;SDS011;61301;51.956;5.876;2024-02-04T13:22:06;8.27;;;3.43;;
73113;SDS011;61301;51.956;5.876;2024-02-04T13:24:32;12.80;;;3.67;;
73113;SDS011;61301;51.956;5.876;2024-02-04T13:26:59;13.98;;;4.47;;
73113;SDS011;61301;51.956;5.876;2024-02-04T13:29:34;11.00;;;3.83;;
73113;SDS011;61301;51.956;5.876;2024-02-04T13:32:00;10.20;;;4.38;;
73113;SDS011;61301;51.956;5.876;2024-02-04T13:34:26;8.40;;;3.65;;
73113;SDS011;61301;51.956;5.876;2024-02-04T13:36:52;9.35;;;3.70;;
73113;SDS011;61301;51.956;5.876;2024-02-04T13:39:18;8.27;;;4.30;;
73113;SDS011;61301;51.956;5.876;2024-02-04T13:41:44;12.93;;;4.18;;
73113;SDS011;61301;51.956;5.876;2024-02-04T13:44:10;9.98;;;4.03;;
73113;SDS011;61301;51.956;5.876;2024-02-04T13:46:37;9.35;;;4.55;;
73113;SDS011;61301;51.956;5.876;2024-02-04T13:49:04;9.20;;;4.43;;
73113;SDS011;61301;51.956;5.876;2024-02-04T13:51:31;10.90;;;3.83;;
73113;SDS011;61301;51.956;5.876;2024-02-04T13:53:57;6.95;;;3.38;;
73113;SDS011;61301;51.956;5.876;2024-02-04T13:56:23;8.15;;;3.95;;
73113;SDS011;61301;51.956;5.876;2024-02-04T13:58:49;13.55;;;4.80;;
73113;SDS011;61301;51.956;5.876;2024-02-04T14:01:16;12.52;;;4.10;;
73113;SDS011;61301;51.956;5.876;2024-02-04T14:03:43;14.38;;;4.75;;
73113;SDS011;61301;51.956;5.876;2024-02-04T14:06:10;15.13;;;4.90;;
73113;SDS011;61301;51.956;5.876;2024-02-04T14:08:37;12.15;;;4.45;;
73113;SDS011;61301;51.956;5.876;2024-02-04T14:11:03;8.73;;;3.35;;
73113;SDS011;61301;51.956;5.876;2024-02-04T14:13:30;11.95;;;3.83;;
73113;SDS011;61301;51.956;5.876;2024-02-04T14:15:56;10.30;;;4.28;;
73113;SDS011;61301;51.956;5.876;2024-02-04T14:18:22;14.85;;;4.15;;
73113;SDS011;61301;51.956;5.876;2024-02-04T14:20:47;17.70;;;4.50;;
73113;SDS011;61301;51.956;5.876;2024-02-04T14:23:13;13.10;;;4.10;;
73113;SDS011;61301;51.956;5.876;2024-02-04T14:25:39;10.43;;;3.40;;
73113;SDS011;61301;51.956;5.876;2024-02-04T14:28:06;11.48;;;3.83;;
73113;SDS011;61301;51.956;5.876;2024-02-04T14:30:32;11.38;;;3.70;;
73113;SDS011;61301;51.956;5.876;2024-02-04T14:32:58;11.90;;;3.90;;
73113;SDS011;61301;51.956;5.876;2024-02-04T14:35:24;11.07;;;4.35;;
73113;SDS011;61301;51.956;5.876;2024-02-04T14:37:50;11.52;;;3.50;;
73113;SDS011;61301;51.956;5.876;2024-02-04T14:40:16;14.63;;;3.58;;
73113;SDS011;61301;51.956;5.876;2024-02-04T14:42:42;10.00;;;3.47;;
73113;SDS011;61301;51.956;5.876;2024-02-04T14:45:08;8.52;;;2.85;;
73113;SDS011;61301;51.956;5.876;2024-02-04T14:47:34;10.10;;;3.70;;
73113;SDS011;61301;51.956;5.876;2024-02-04T14:50:00;14.18;;;4.10;;